LPLA METAR and TAF weather

Enter ICAO airport designator
Station Type Date Time Source
LPLA METAR 2020/09/26 11:00 UTC NOAA

LPLA 261100Z /////KT 9999 -RA SCT020 BKN035 21/18 Q1029


Station Type Date Time Source
LPLA Decoded METAR 2020/09/26 11:00 UTC NOAA

Lajes Acores , Portugal (LPLA) 38-46N 027-06W 54M
Sep 26, 2020 - 07:00 AM EDT / 2020.09.26 1100 UTC
Visibility: greater than 7 mile(s):0
Sky conditions: mostly cloudy
Weather: light rain
Temperature: 69 F (21 C)
Dew Point: 64 F (18 C)
Relative Humidity: 82%
Pressure (altimeter): 30.39 in. Hg (1029 hPa)
ob: LPLA 261100Z /////KT 9999 -RA SCT020 BKN035 21/18 Q1029
cycle: 11

Station Type Date Time Source
LPLA TAF 2020/09/26 06:18 UTC NOAA

TAF LPLA 260502Z 2606/2706 12012KT 9999 FEW020 BKN040
BECMG 2613/2615 FEW015 SCT040
BECMG 2622/2701 SCT012 BKN030
TEMPO 2700/2705 5000 SHRA BKN012 FEW025CB PROB30
TEMPO 2701/2704 2500 TSRA BKN009 SCT025CB

Example: see airport list